Time;durP1;ratioP1;P1;durP2;ratioP2;P2;SDS_P1;SDS_P2;PMS_P1;PMS_P2;Temp;Humidity;BMP_temperature;BMP_pressure;BME280_temperature;BME280_humidity;BME280_pressure;Samples;Min_cycle;Max_cycle;Signal;HPM_P1;HPM_P2
2022/05/02 00:00:33;;;;;;;5.10;4.60;;;10.30;99.90;11.00;96832.00;;;;5088639;28;20219;-72
2022/05/02 00:03:03;;;;;;;5.13;4.63;;;10.30;99.90;11.00;96847.00;;;;5089263;28;20215;-72
2022/05/02 00:05:32;;;;;;;4.50;4.10;;;10.30;99.90;11.00;96832.00;;;;5084231;28;20195;-72
2022/05/02 00:08:00;;;;;;;6.10;5.50;;;10.30;99.90;11.00;96834.00;;;;5078621;28;20230;-71
2022/05/02 00:10:29;;;;;;;6.07;5.47;;;10.20;99.90;11.10;96823.00;;;;5084461;28;20195;-72
2022/05/02 00:12:58;;;;;;;4.83;4.13;;;10.30;99.90;11.20;96814.00;;;;5088755;28;20274;-71
2022/05/02 00:15:27;;;;;;;5.97;5.47;;;10.30;99.90;10.80;96814.00;;;;5082371;28;20202;-71
2022/05/02 00:17:59;;;;;;;5.73;4.83;;;10.30;99.90;10.90;96823.00;;;;5087148;28;20212;-71
2022/05/02 00:20:32;;;;;;;6.30;5.33;;;10.30;99.90;10.90;96813.00;;;;5078461;28;20191;-71
2022/05/02 00:23:02;;;;;;;5.13;4.73;;;10.20;99.90;10.80;96811.00;;;;5083893;28;20191;-72
2022/05/02 00:25:32;;;;;;;6.37;5.07;;;10.20;99.90;11.00;96818.00;;;;5089210;28;20249;-71
2022/05/02 00:28:01;;;;;;;5.73;4.73;;;10.20;99.90;11.10;96815.00;;;;5091653;28;20219;-71
2022/05/02 00:30:30;;;;;;;5.13;4.73;;;10.30;99.90;11.10;96811.00;;;;5091552;28;20197;-71
2022/05/02 00:32:59;;;;;;;7.27;4.97;;;10.30;99.90;11.20;96819.00;;;;5091285;28;20202;-71
2022/05/02 00:35:30;;;;;;;6.83;5.20;;;10.30;99.90;11.10;96809.00;;;;5092078;28;20196;-72
2022/05/02 00:37:58;;;;;;;5.90;5.30;;;10.30;99.90;11.20;96815.00;;;;5088974;28;20294;-72
2022/05/02 00:40:27;;;;;;;5.83;5.10;;;10.40;99.90;11.20;96815.00;;;;5090985;28;20195;-72
2022/05/02 00:42:56;;;;;;;5.47;4.93;;;10.40;99.90;11.30;96818.00;;;;5084036;28;20232;-72
2022/05/02 00:45:24;;;;;;;5.40;5.00;;;10.40;99.90;11.30;96812.00;;;;5091142;28;20205;-72
2022/05/02 00:47:56;;;;;;;5.63;4.67;;;10.40;99.90;11.20;96807.00;;;;5083610;28;20231;-72
2022/05/02 00:50:36;;;;;;;5.93;5.37;;;10.40;99.90;11.20;96810.00;;;;5088769;28;20203;-72
2022/05/02 00:53:12;;;;;;;5.57;5.07;;;10.40;99.90;11.30;96812.00;;;;5091268;28;20247;-72
2022/05/02 00:55:41;;;;;;;5.50;5.00;;;10.40;99.90;11.30;96806.00;;;;5086538;28;20195;-72
2022/05/02 00:58:10;;;;;;;10.13;5.83;;;10.40;99.90;11.20;96815.00;;;;5083391;28;20265;-71
2022/05/02 01:00:40;;;;;;;6.37;5.77;;;10.40;99.90;11.30;96805.00;;;;5086118;28;20207;-72
2022/05/02 01:03:11;;;;;;;6.97;5.40;;;10.40;99.90;11.30;96812.00;;;;5086316;28;20199;-72
2022/05/02 01:08:27;;;;;;;5.87;5.37;;;10.50;99.90;11.30;96805.00;;;;5078869;28;20223;-72
2022/05/02 01:10:58;;;;;;;6.60;6.00;;;10.50;99.90;11.20;96806.00;;;;5086109;28;20203;-72
2022/05/02 01:13:38;;;;;;;5.00;4.60;;;10.50;99.90;11.20;96801.00;;;;5089655;28;20274;-72
2022/05/02 01:16:12;;;;;;;6.13;5.53;;;10.50;99.90;11.00;96789.00;;;;5090736;28;20199;-72
2022/05/02 01:18:42;;;;;;;5.40;4.90;;;10.40;99.90;10.90;96807.00;;;;5089353;28;20219;-72
2022/05/02 01:21:15;;;;;;;5.47;4.97;;;10.30;99.90;11.10;96811.00;;;;5089627;28;20252;-72
2022/05/02 01:23:45;;;;;;;5.90;5.13;;;10.30;99.90;11.00;96804.00;;;;5091217;28;20211;-71
2022/05/02 01:26:14;;;;;;;7.00;6.30;;;10.30;99.90;11.10;96791.00;;;;5091009;28;20196;-71
2022/05/02 01:28:45;;;;;;;6.37;5.77;;;10.30;99.90;11.20;96802.00;;;;5089850;28;20702;-71
2022/05/02 01:31:16;;;;;;;5.63;5.13;;;10.30;99.90;11.20;96788.00;;;;5091455;28;20195;-71
2022/05/02 01:33:45;;;;;;;6.03;5.03;;;10.30;99.90;11.20;96796.00;;;;5085686;28;20195;-71
2022/05/02 01:36:16;;;;;;;6.83;5.80;;;10.40;99.90;11.10;96793.00;;;;5088827;28;20195;-71
2022/05/02 01:38:44;;;;;;;5.07;4.57;;;10.40;99.90;11.20;96790.00;;;;5090760;28;20219;-71
2022/05/02 01:41:13;;;;;;;5.17;4.67;;;10.30;99.90;11.20;96794.00;;;;5084422;28;20191;-71
2022/05/02 01:43:43;;;;;;;5.83;5.33;;;10.30;99.90;11.20;96799.00;;;;5089367;28;20195;-72
2022/05/02 01:46:13;;;;;;;6.27;5.67;;;10.30;99.90;11.00;96794.00;;;;5090304;28;20195;-71
2022/05/02 01:48:42;;;;;;;6.53;5.10;;;10.30;99.90;10.90;96796.00;;;;5090300;28;20625;-71
2022/05/02 01:51:11;;;;;;;6.30;5.53;;;10.30;99.90;11.10;96789.00;;;;5089696;28;20198;-71
2022/05/02 01:53:42;;;;;;;6.07;5.37;;;10.30;99.90;11.10;96792.00;;;;5090143;28;20256;-71
2022/05/02 01:56:10;;;;;;;6.63;5.30;;;10.30;99.90;11.20;96789.00;;;;5090056;28;20274;-71
2022/05/02 01:58:39;;;;;;;6.00;5.40;;;10.30;99.90;11.00;96789.00;;;;5090336;28;20261;-71
2022/05/02 02:01:07;;;;;;;5.60;5.10;;;10.30;99.90;11.10;96793.00;;;;5090887;28;20198;-71
2022/05/02 02:03:36;;;;;;;6.33;5.73;;;10.30;99.90;11.20;96788.00;;;;5087864;28;20192;-72
2022/05/02 02:06:04;;;;;;;5.77;4.90;;;10.30;99.90;11.10;96780.00;;;;5084827;28;20365;-71
2022/05/02 02:08:35;;;;;;;6.23;5.63;;;10.30;99.90;11.10;96792.00;;;;5090184;28;20264;-72
2022/05/02 02:11:08;;;;;;;6.40;5.80;;;10.30;99.90;11.00;96786.00;;;;5090351;28;20751;-72
2022/05/02 02:13:38;;;;;;;9.27;5.30;;;10.30;99.90;11.10;96787.00;;;;5085779;28;20207;-72
2022/05/02 02:16:09;;;;;;;6.10;5.50;;;10.20;99.90;11.00;96784.00;;;;5088548;28;20183;-72
2022/05/02 02:18:39;;;;;;;8.27;6.10;;;10.20;99.90;11.00;96788.00;;;;5088446;28;20754;-72
2022/05/02 02:21:10;;;;;;;5.50;5.07;;;10.20;99.90;10.70;96789.00;;;;5085090;28;20788;-71
2022/05/02 02:23:39;;;;;;;6.20;5.50;;;10.20;99.90;10.70;96783.00;;;;5086698;28;20310;-71
2022/05/02 02:26:09;;;;;;;5.70;5.30;;;10.10;99.90;10.80;96795.00;;;;5089090;28;20191;-71
2022/05/02 02:28:39;;;;;;;6.03;5.53;;;10.20;99.90;10.70;96796.00;;;;5084529;28;20211;-71
2022/05/02 02:31:08;;;;;;;7.67;6.30;;;10.10;99.90;10.70;96791.00;;;;5089621;28;20195;-71
2022/05/02 02:33:38;;;;;;;7.50;5.70;;;10.10;99.90;10.80;96794.00;;;;5086771;28;20305;-71
2022/05/02 02:36:07;;;;;;;7.00;5.47;;;10.10;99.90;10.70;96792.00;;;;5087983;28;20709;-71
2022/05/02 02:38:36;;;;;;;7.50;5.87;;;10.10;99.90;10.80;96794.00;;;;5087561;28;20247;-71
2022/05/02 02:41:04;;;;;;;7.43;5.53;;;10.10;99.90;10.90;96798.00;;;;5084340;28;20212;-71
2022/05/02 02:43:34;;;;;;;7.27;6.03;;;10.10;99.90;10.90;96798.00;;;;5082719;28;20198;-71
2022/05/02 02:46:03;;;;;;;6.53;5.83;;;10.10;99.90;10.80;96796.00;;;;5088816;28;20210;-71
2022/05/02 02:48:31;;;;;;;6.50;5.90;;;10.10;99.90;10.60;96787.00;;;;5088204;28;20251;-71
2022/05/02 02:51:02;;;;;;;7.90;6.03;;;10.10;99.90;10.60;96799.00;;;;5089203;28;20681;-71
2022/05/02 02:53:31;;;;;;;6.70;6.00;;;10.10;99.90;10.60;96801.00;;;;5089789;28;20222;-71
2022/05/02 02:55:59;;;;;;;7.67;6.30;;;10.00;99.90;10.50;96814.00;;;;5089326;28;20238;-71
2022/05/02 02:58:28;;;;;;;6.23;5.63;;;10.00;99.90;10.30;96815.00;;;;5084543;28;20228;-71
2022/05/02 03:00:58;;;;;;;6.37;5.77;;;9.90;99.90;10.20;96817.00;;;;5088796;28;20192;-71
2022/05/02 03:03:28;;;;;;;7.77;5.63;;;9.90;99.90;10.30;96819.00;;;;5089088;28;20274;-71
2022/05/02 03:06:02;;;;;;;6.93;6.33;;;9.80;99.90;10.60;96820.00;;;;5083257;28;20998;-70
2022/05/02 03:08:34;;;;;;;5.27;4.80;;;9.90;99.90;10.70;96816.00;;;;5089242;28;20211;-71
2022/05/02 03:11:03;;;;;;;7.47;5.87;;;9.90;99.90;10.80;96825.00;;;;5088625;28;20698;-71
2022/05/02 03:13:34;;;;;;;9.67;5.90;;;9.90;99.90;10.70;96814.00;;;;5083124;28;20226;-70
2022/05/02 03:16:04;;;;;;;7.23;6.20;;;10.00;99.90;10.80;96812.00;;;;5083153;28;20227;-70
2022/05/02 03:18:34;;;;;;;6.63;6.03;;;10.00;99.90;10.90;96811.00;;;;5087258;28;20768;-71
2022/05/02 03:21:03;;;;;;;6.50;5.90;;;10.00;99.90;11.00;96800.00;;;;5088794;28;20196;-71
2022/05/02 03:23:31;;;;;;;5.97;5.40;;;10.00;99.90;10.90;96786.00;;;;5082528;28;20199;-71
2022/05/02 03:26:00;;;;;;;6.77;6.07;;;10.10;99.90;10.80;96790.00;;;;5086100;28;20199;-70
2022/05/02 03:28:28;;;;;;;6.27;5.67;;;10.10;99.90;10.80;96783.00;;;;5088022;28;20207;-71
2022/05/02 03:30:57;;;;;;;6.90;6.20;;;10.10;99.90;10.80;96786.00;;;;5087523;28;20187;-71
2022/05/02 03:33:27;;;;;;;8.00;6.30;;;10.00;99.90;10.70;96790.00;;;;5088706;28;20749;-70
2022/05/02 03:35:56;;;;;;;6.27;5.23;;;10.10;99.90;10.70;96779.00;;;;5088013;28;20199;-71
2022/05/02 03:38:24;;;;;;;5.77;5.27;;;10.00;99.90;10.80;96786.00;;;;5086927;28;20210;-71
2022/05/02 03:40:53;;;;;;;5.73;5.17;;;10.00;99.90;10.90;96790.00;;;;5087984;28;20239;-71
2022/05/02 03:43:22;;;;;;;6.87;6.17;;;10.00;99.90;11.00;96790.00;;;;5086338;28;20210;-71
2022/05/02 03:45:50;;;;;;;7.97;6.37;;;10.10;99.90;11.00;96790.00;;;;5087379;28;20697;-71
2022/05/02 03:48:19;;;;;;;10.43;6.70;;;10.10;99.90;11.10;96779.00;;;;5087861;28;20210;-71
2022/05/02 03:50:49;;;;;;;6.50;5.70;;;10.10;99.90;11.00;96784.00;;;;5088160;28;20195;-72
2022/05/02 03:53:18;;;;;;;5.60;5.10;;;10.50;99.90;11.00;96788.00;;;;5089252;28;20215;-71
2022/05/02 03:55:47;;;;;;;7.50;6.80;;;10.10;99.90;10.90;96784.00;;;;5085741;28;20726;-71
2022/05/02 03:58:15;;;;;;;6.17;5.57;;;10.10;99.90;10.90;96788.00;;;;5087222;28;20310;-71
2022/05/02 04:00:44;;;;;;;6.63;5.97;;;10.10;99.90;11.00;96776.00;;;;5087975;28;20270;-71
2022/05/02 04:03:13;;;;;;;7.13;6.13;;;10.10;99.90;10.90;96779.00;;;;5089660;28;20199;-71
2022/05/02 04:05:42;;;;;;;6.13;5.33;;;10.10;99.90;11.00;96783.00;;;;5088438;28;20198;-71
2022/05/02 04:08:11;;;;;;;8.23;6.10;;;10.10;99.90;10.90;96771.00;;;;5083043;28;20694;-71
2022/05/02 04:10:40;;;;;;;10.33;6.13;;;10.10;99.90;11.00;96776.00;;;;5080575;28;20678;-71
2022/05/02 04:13:10;;;;;;;7.10;6.40;;;10.10;99.90;10.80;96784.00;;;;5090953;28;20207;-71
2022/05/02 04:15:39;;;;;;;6.50;5.93;;;10.10;99.90;10.60;96778.00;;;;5081877;28;20196;-71
2022/05/02 04:18:08;;;;;;;6.40;5.77;;;10.00;99.90;10.50;96771.00;;;;5085219;28;20229;-71
2022/05/02 04:20:36;;;;;;;6.73;6.13;;;10.00;99.90;10.80;96774.00;;;;5091884;28;20734;-71
2022/05/02 04:23:05;;;;;;;9.00;7.43;;;10.00;99.90;10.90;96773.00;;;;5089313;28;20206;-71
2022/05/02 04:25:35;;;;;;;7.13;6.37;;;10.00;99.90;11.10;96771.00;;;;5090958;28;20287;-71
2022/05/02 04:28:05;;;;;;;6.33;5.60;;;10.10;99.90;11.10;96774.00;;;;5088779;28;20917;-71
2022/05/02 04:30:33;;;;;;;6.63;5.80;;;10.10;99.90;11.20;96774.00;;;;5080126;28;20253;-71
2022/05/02 04:33:02;;;;;;;6.53;5.93;;;10.20;99.90;11.20;96778.00;;;;5078679;28;20227;-71
2022/05/02 04:35:31;;;;;;;8.67;6.20;;;10.20;99.90;11.20;96774.00;;;;5091489;28;20191;-71
2022/05/02 04:38:01;;;;;;;6.87;6.17;;;10.20;99.90;10.90;96764.00;;;;5082665;28;20231;-71
2022/05/02 04:40:29;;;;;;;7.33;6.63;;;10.20;99.90;10.80;96777.00;;;;5083372;28;20682;-71
2022/05/02 04:42:59;;;;;;;7.57;6.80;;;10.20;99.90;10.90;96771.00;;;;5089807;28;20691;-71
2022/05/02 04:45:28;;;;;;;6.37;5.80;;;10.20;99.90;10.90;96771.00;;;;5087742;28;20324;-71
2022/05/02 04:47:57;;;;;;;6.97;6.27;;;10.20;99.90;11.10;96780.00;;;;5078783;28;20279;-71
2022/05/02 04:50:27;;;;;;;7.37;6.57;;;10.20;99.90;11.10;96766.00;;;;5079381;28;20550;-71
2022/05/02 04:52:56;;;;;;;8.60;6.70;;;10.30;99.90;11.30;96771.00;;;;5082843;28;20196;-71
2022/05/02 04:55:24;;;;;;;7.33;6.63;;;10.30;99.90;11.40;96779.00;;;;5083045;28;20385;-71
2022/05/02 04:57:53;;;;;;;7.07;6.37;;;10.40;99.90;11.30;96776.00;;;;5081054;28;20733;-71
2022/05/02 05:00:23;;;;;;;7.30;6.60;;;10.40;99.90;11.20;96765.00;;;;5090012;28;20708;-71
2022/05/02 05:02:52;;;;;;;8.13;7.43;;;10.40;99.90;11.10;96766.00;;;;5082885;28;20515;-71
2022/05/02 05:05:23;;;;;;;8.53;7.50;;;10.40;99.90;11.20;96767.00;;;;5087333;28;20199;-71
2022/05/02 05:07:51;;;;;;;9.13;7.20;;;10.40;99.90;11.30;96773.00;;;;5082812;28;20215;-71
2022/05/02 05:10:20;;;;;;;8.57;7.77;;;10.50;99.90;11.20;96777.00;;;;5085842;28;20749;-71
2022/05/02 05:13:01;;;;;;;7.53;6.17;;;10.50;99.90;11.20;96777.00;;;;5081472;28;20202;-71
2022/05/02 05:16:20;;;;;;;7.67;6.77;;;10.50;99.90;11.20;96770.00;;;;5087140;28;20195;-71
2022/05/02 05:19:24;;;;;;;8.00;7.20;;;10.50;99.90;11.30;96775.00;;;;5081055;28;20215;-71
2022/05/02 05:22:06;;;;;;;8.53;7.63;;;10.50;99.90;11.30;96773.00;;;;5066337;28;20234;-71
2022/05/02 05:25:05;;;;;;;8.53;6.93;;;10.50;99.90;11.50;96772.00;;;;5089840;28;20192;-71
2022/05/02 05:27:55;;;;;;;7.47;6.57;;;10.60;99.90;11.70;96770.00;;;;5081805;28;20680;-71
2022/05/02 05:30:28;;;;;;;9.20;8.30;;;10.60;99.90;11.70;96764.00;;;;5087376;28;20469;-71
2022/05/02 05:33:12;;;;;;;7.60;6.80;;;10.60;99.90;11.70;96764.00;;;;5079576;28;20271;-71
2022/05/02 05:35:54;;;;;;;6.83;6.20;;;10.70;99.90;11.80;96756.00;;;;5090923;28;20248;-71
2022/05/02 05:38:37;;;;;;;7.37;6.70;;;10.70;99.90;11.50;96765.00;;;;5091201;28;20699;-71
2022/05/02 05:41:26;;;;;;;9.43;6.97;;;10.70;99.90;11.30;96763.00;;;;5088599;28;20226;-71
2022/05/02 05:44:15;;;;;;;7.87;7.13;;;10.70;99.90;11.10;96755.00;;;;5082300;28;20202;-72
2022/05/02 05:47:17;;;;;;;7.33;6.63;;;10.60;99.90;11.30;96764.00;;;;5077086;28;20237;-71
2022/05/02 05:50:05;;;;;;;7.70;7.00;;;10.60;99.90;11.40;96758.00;;;;5089241;28;20681;-72
2022/05/02 05:52:58;;;;;;;9.53;7.47;;;10.60;99.90;11.40;96746.00;;;;5092066;28;20197;-71
2022/05/02 05:55:34;;;;;;;7.73;6.90;;;10.60;99.90;11.40;96747.00;;;;5088040;28;20970;-72
2022/05/02 05:58:16;;;;;;;8.30;7.50;;;10.60;99.90;11.60;96747.00;;;;5079619;28;20256;-71
2022/05/02 06:00:46;;;;;;;8.00;6.73;;;10.70;99.90;11.70;96754.00;;;;5073100;28;20192;-72
2022/05/02 06:03:17;;;;;;;7.83;6.97;;;10.70;99.90;11.70;96759.00;;;;5085451;28;20717;-72
2022/05/02 06:05:48;;;;;;;7.93;7.13;;;10.70;99.90;11.80;96760.00;;;;5084084;28;20207;-72
2022/05/02 06:08:20;;;;;;;7.03;5.80;;;10.80;99.90;11.80;96777.00;;;;5074088;28;20268;-72
2022/05/02 06:10:51;;;;;;;8.00;7.13;;;10.80;99.90;11.60;96774.00;;;;5082368;28;20191;-72
2022/05/02 06:13:20;;;;;;;7.90;7.10;;;10.80;99.90;11.60;96782.00;;;;5078392;28;20219;-72
2022/05/02 06:18:55;;;;;;;9.07;7.00;;;10.80;99.90;11.90;96789.00;;;;5082587;28;20219;-72
2022/05/02 06:21:25;;;;;;;7.37;6.67;;;10.80;99.90;11.80;96796.00;;;;5091286;28;20248;-72
2022/05/02 06:23:54;;;;;;;8.70;7.80;;;10.80;99.90;11.40;96789.00;;;;5090205;28;20195;-72
2022/05/02 06:26:24;;;;;;;8.43;7.13;;;10.80;99.90;11.60;96790.00;;;;5078245;28;20192;-72
2022/05/02 06:28:53;;;;;;;8.17;7.37;;;10.80;99.90;11.80;96795.00;;;;5085120;28;20694;-72
2022/05/02 06:31:26;;;;;;;8.97;7.67;;;10.80;99.90;11.90;96798.00;;;;5080294;28;20744;-72
2022/05/02 06:33:58;;;;;;;7.30;6.60;;;10.80;99.90;12.00;96798.00;;;;5074878;28;20196;-72
2022/05/02 06:36:59;;;;;;;7.50;6.67;;;10.90;99.90;11.90;96794.00;;;;5079388;28;20219;-72
2022/05/02 06:39:55;;;;;;;9.20;7.57;;;10.90;99.90;11.90;96799.00;;;;5080585;28;20662;-72
2022/05/02 06:42:34;;;;;;;7.17;6.43;;;11.00;99.90;12.10;96800.00;;;;5069750;28;20192;-73
2022/05/02 06:45:24;;;;;;;8.37;7.57;;;11.00;99.90;12.30;96813.00;;;;5089358;28;20195;-72
2022/05/02 06:48:16;;;;;;;9.37;7.03;;;11.10;99.90;12.30;96806.00;;;;5085105;28;20694;-72
2022/05/02 06:50:54;;;;;;;7.70;6.90;;;11.10;99.90;12.20;96802.00;;;;5077317;28;20188;-73
2022/05/02 06:54:09;;;;;;;7.97;7.03;;;11.20;99.90;12.40;96804.00;;;;5077391;28;20670;-72
2022/05/02 06:56:44;;;;;;;8.00;7.20;;;11.20;99.90;12.30;96803.00;;;;5083591;28;20254;-72
2022/05/02 06:59:35;;;;;;;7.10;6.40;;;11.30;99.90;12.30;96806.00;;;;5090221;28;20223;-73
2022/05/02 07:02:25;;;;;;;7.70;7.00;;;11.30;99.90;12.50;96800.00;;;;5087213;28;20192;-73
2022/05/02 07:04:54;;;;;;;6.93;6.33;;;11.30;99.90;12.60;96804.00;;;;5098806;28;20698;-73
2022/05/02 07:07:46;;;;;;;6.70;6.10;;;11.40;99.90;12.80;96804.00;;;;5108138;28;20710;-72
2022/05/02 07:10:24;;;;;;;6.93;6.27;;;11.50;99.90;12.90;96807.00;;;;5110628;28;20225;-72
2022/05/02 07:13:07;;;;;;;7.67;6.70;;;11.60;99.90;13.00;96807.00;;;;5100166;28;20190;-72
2022/05/02 07:15:44;;;;;;;8.50;6.17;;;11.70;99.90;13.00;96809.00;;;;5114449;27;20211;-73
2022/05/02 07:18:39;;;;;;;6.97;6.33;;;11.80;99.90;13.10;96808.00;;;;5110007;28;20696;-73
2022/05/02 07:21:31;;;;;;;6.80;6.10;;;11.80;99.90;13.20;96807.00;;;;5100855;28;20665;-72
2022/05/02 07:24:16;;;;;;;7.10;6.07;;;11.90;99.90;13.00;96813.00;;;;5110181;28;20197;-72
2022/05/02 07:26:55;;;;;;;6.53;5.60;;;11.90;99.90;13.10;96815.00;;;;5109467;28;20620;-73
2022/05/02 07:29:27;;;;;;;6.60;5.93;;;12.00;99.90;13.10;96813.00;;;;5110322;28;20194;-73
2022/05/02 07:31:56;;;;;;;6.20;5.63;;;11.90;99.90;13.00;96816.00;;;;5110213;28;20660;-73
2022/05/02 07:34:27;;;;;;;7.27;6.57;;;11.90;99.90;13.00;96810.00;;;;5109752;28;20187;-73
2022/05/02 07:36:56;;;;;;;6.17;5.57;;;11.90;99.90;12.80;96817.00;;;;5109739;28;20672;-72
2022/05/02 07:39:26;;;;;;;7.33;6.57;;;11.90;99.90;13.00;96817.00;;;;5110057;28;20660;-73
2022/05/02 07:42:02;;;;;;;7.97;7.17;;;11.90;99.90;13.20;96807.00;;;;5110038;28;20194;-72
2022/05/02 07:44:37;;;;;;;7.97;7.17;;;12.00;99.90;13.20;96820.00;;;;5100739;28;20210;-73
2022/05/02 07:47:10;;;;;;;6.67;5.90;;;12.00;99.90;13.20;96812.00;;;;5104842;28;20191;-72
2022/05/02 07:49:42;;;;;;;6.97;6.27;;;12.00;99.90;12.90;96810.00;;;;5110017;28;20206;-73
2022/05/02 07:52:17;;;;;;;11.10;7.90;;;12.00;99.90;13.00;96816.00;;;;5108764;28;20205;-72
2022/05/02 07:54:49;;;;;;;7.53;6.83;;;12.00;99.90;13.00;96817.00;;;;5101233;28;20206;-73
2022/05/02 07:57:23;;;;;;;9.07;7.37;;;12.00;99.90;13.00;96815.00;;;;5102393;28;20222;-74
2022/05/02 07:59:55;;;;;;;8.27;7.37;;;12.00;99.90;13.20;96810.00;;;;5103815;28;20190;-72
2022/05/02 08:02:26;;;;;;;10.67;7.87;;;12.10;99.90;13.40;96810.00;;;;5096910;28;20206;-72
2022/05/02 08:04:57;;;;;;;8.73;7.93;;;12.20;99.90;13.30;96810.00;;;;5097981;28;20221;-72
2022/05/02 08:07:37;;;;;;;8.20;7.40;;;12.20;99.90;13.50;96815.00;;;;5101189;28;20230;-72
2022/05/02 08:10:46;;;;;;;8.67;7.83;;;12.30;99.90;13.50;96811.00;;;;5093947;28;20704;-72
2022/05/02 08:13:43;;;;;;;11.17;6.63;;;12.40;99.90;13.90;96802.00;;;;5102505;28;20236;-72
2022/05/02 08:16:22;;;;;;;7.87;7.10;;;12.50;99.90;14.10;96817.00;;;;5098187;28;20344;-72
2022/05/02 08:19:13;;;;;;;7.67;6.70;;;12.60;99.90;14.20;96811.00;;;;5101078;28;20758;-72
2022/05/02 08:21:47;;;;;;;7.37;6.33;;;12.80;99.90;14.40;96803.00;;;;5096989;28;20573;-72
2022/05/02 08:27:43;;;;;;;11.67;7.27;;;13.10;99.90;14.90;96816.00;;;;5093814;28;20297;-72
2022/05/02 08:30:23;;;;;;;7.27;6.13;;;13.30;99.90;14.90;96817.00;;;;5102194;28;20213;-73
2022/05/02 08:33:03;;;;;;;6.23;5.63;;;13.40;99.90;14.90;96816.00;;;;5097346;28;20205;-72
2022/05/02 08:35:59;;;;;;;6.17;5.57;;;13.50;99.90;14.90;96812.00;;;;5097631;28;20305;-73
2022/05/02 08:38:48;;;;;;;6.03;5.43;;;13.60;99.90;14.70;96813.00;;;;5108410;28;20245;-72
2022/05/02 08:41:59;;;;;;;6.70;5.93;;;13.60;99.90;14.80;96804.00;;;;5114178;28;20230;-73
2022/05/02 08:45:27;;;;;;;5.83;5.33;;;13.70;99.90;14.80;96812.00;;;;5100565;28;20191;-72
2022/05/02 08:52:34;;;;;;;6.67;5.47;;;13.70;99.90;15.00;96825.00;;;;5099609;28;20203;-72
2022/05/02 08:56:09;;;;;;;7.40;6.40;;;13.80;99.90;14.70;96806.00;;;;5083413;28;20309;-72
2022/05/02 08:59:19;;;;;;;6.90;5.77;;;13.80;99.90;14.90;96802.00;;;;5094611;28;20708;-73
2022/05/02 09:02:28;;;;;;;5.83;4.67;;;13.80;99.90;14.70;96799.00;;;;5112939;28;20209;-72
2022/05/02 09:05:52;;;;;;;6.73;6.13;;;13.80;99.90;15.20;96799.00;;;;5113242;28;20198;-73
2022/05/02 09:09:17;;;;;;;6.30;5.70;;;13.90;99.90;15.50;96807.00;;;;5112559;28;20348;-72
2022/05/02 09:12:29;;;;;;;8.27;6.00;;;14.10;99.90;15.70;96805.00;;;;5105523;28;20259;-72
2022/05/02 09:15:37;;;;;;;6.23;5.63;;;14.40;99.90;15.40;96803.00;;;;5072470;28;20241;-72
2022/05/02 09:19:19;;;;;;;6.13;5.53;;;14.50;99.90;15.80;96808.00;;;;5101133;28;20790;-72
2022/05/02 09:22:53;;;;;;;8.10;6.47;;;14.60;99.90;15.70;96796.00;;;;5041683;28;20214;-73
2022/05/02 09:25:36;;;;;;;10.83;5.50;;;14.70;99.90;15.80;96782.00;;;;4977943;28;20706;-72
2022/05/02 09:28:21;;;;;;;6.43;4.80;;;14.90;99.90;16.80;96783.00;;;;5101262;28;20612;-72
2022/05/02 09:31:18;;;;;;;6.67;5.20;;;15.10;99.90;17.40;96798.00;;;;5102312;28;20202;-73
2022/05/02 09:34:11;;;;;;;5.63;4.83;;;15.50;99.90;17.10;96778.00;;;;5112735;28;20285;-72
2022/05/02 09:36:45;;;;;;;7.80;5.57;;;15.70;99.90;17.00;96781.00;;;;5111627;28;20289;-72
2022/05/02 09:39:16;;;;;;;5.40;4.70;;;15.90;99.90;17.10;96777.00;;;;5112462;28;20747;-73
2022/05/02 09:42:10;;;;;;;6.23;5.20;;;16.10;99.90;18.00;96777.00;;;;5112299;28;20191;-72
2022/05/02 09:52:04;;;;;;;4.67;4.27;;;16.90;99.90;20.00;96764.00;;;;5104256;28;20283;-72
2022/05/02 09:58:32;;;;;;;5.00;3.77;;;17.80;99.90;19.60;96776.00;;;;5047325;28;20236;-73
2022/05/02 10:01:17;;;;;;;6.03;4.33;;;18.10;99.90;19.90;96765.00;;;;5061294;28;20651;-73
2022/05/02 10:04:42;;;;;;;5.40;4.17;;;18.10;99.90;19.50;96767.00;;;;5086986;28;20238;-72
2022/05/02 10:07:12;;;;;;;5.07;4.67;;;18.20;99.90;19.00;96765.00;;;;5068776;28;20297;-72
2022/05/02 10:10:06;;;;;;;4.70;4.30;;;18.10;99.90;19.50;96765.00;;;;5094802;27;20195;-72
2022/05/02 10:12:47;;;;;;;4.33;3.93;;;18.10;99.90;20.00;96758.00;;;;5105414;28;20187;-72
2022/05/02 10:15:52;;;;;;;6.40;4.90;;;18.20;99.90;20.50;96734.00;;;;5102651;28;20203;-72
2022/05/02 10:18:58;;;;;;;4.33;3.83;;;18.40;99.90;20.20;96743.00;;;;5101960;28;20207;-72
2022/05/02 10:22:07;;;;;;;4.57;4.17;;;18.60;99.90;20.40;96716.00;;;;5096222;28;20239;-73
2022/05/02 10:25:03;;;;;;;5.63;5.13;;;18.80;99.90;20.30;96714.00;;;;5114519;27;20454;-72
2022/05/02 10:27:43;;;;;;;5.27;4.77;;;18.90;99.90;21.10;96739.00;;;;5112649;27;20603;-72
2022/05/02 10:30:13;;;;;;;4.33;3.93;;;19.10;99.90;21.00;96729.00;;;;5103674;28;20282;-72
2022/05/02 10:32:54;;;;;;;4.97;4.57;;;19.20;99.90;21.20;96697.00;;;;5096614;27;20222;-72
2022/05/02 10:35:25;;;;;;;5.80;4.13;;;19.40;99.90;21.10;96720.00;;;;5113059;27;20187;-72
2022/05/02 10:37:59;;;;;;;6.27;4.10;;;19.50;99.90;21.10;96695.00;;;;5099245;28;20303;-71
2022/05/02 10:40:41;;;;;;;4.77;4.27;;;19.70;99.90;21.10;96702.00;;;;5102928;28;20233;-72
2022/05/02 10:43:12;;;;;;;4.10;3.70;;;19.70;99.90;21.70;96693.00;;;;5110967;28;20677;-72
2022/05/02 10:45:42;;;;;;;4.73;3.50;;;20.00;99.90;21.70;96728.00;;;;5111135;28;20273;-72
2022/05/02 10:48:16;;;;;;;4.17;2.63;;;20.20;99.90;21.40;96728.00;;;;5105406;28;20225;-72
2022/05/02 10:50:55;;;;;;;3.63;3.17;;;20.20;99.40;21.80;96723.00;;;;5101477;27;20567;-73
2022/05/02 10:53:55;;;;;;;3.57;3.27;;;20.20;99.50;22.10;96722.00;;;;5095542;28;20203;-72
2022/05/02 10:56:38;;;;;;;3.57;3.20;;;20.20;99.90;22.20;96677.00;;;;5114826;27;20216;-72
2022/05/02 10:59:11;;;;;;;4.17;3.30;;;20.30;99.90;23.40;96682.00;;;;5101334;28;20313;-72
2022/05/02 11:02:28;;;;;;;2.87;2.53;;;20.80;99.90;23.70;96721.00;;;;5097520;28;20632;-72
2022/05/02 11:05:10;;;;;;;3.33;2.87;;;21.20;99.00;23.30;96724.00;;;;5100935;28;20247;-72
2022/05/02 11:07:56;;;;;;;2.80;2.60;;;21.40;97.80;23.00;96720.00;;;;5103081;28;20689;-72
2022/05/02 11:10:30;;;;;;;3.47;2.90;;;21.40;96.30;22.80;96729.00;;;;5109454;28;20333;-72
2022/05/02 11:13:12;;;;;;;4.10;3.43;;;21.40;95.00;22.00;96743.00;;;;5109373;28;20190;-72
2022/05/02 11:16:07;;;;;;;2.40;2.20;;;21.10;95.10;20.50;96746.00;;;;5104971;28;20266;-72
2022/05/02 11:21:59;;;;;;;2.40;2.20;;;20.10;95.10;18.30;96754.00;;;;5098194;28;20725;-72
2022/05/02 11:25:01;;;;;;;3.00;2.73;;;19.10;93.40;18.20;96753.00;;;;5099337;27;20202;-72
2022/05/02 11:27:42;;;;;;;2.83;2.63;;;18.30;95.50;17.40;96751.00;;;;5101608;28;20214;-71
2022/05/02 11:30:15;;;;;;;3.07;2.83;;;17.70;98.50;17.20;96760.00;;;;5110952;27;20217;-71
2022/05/02 11:33:07;;;;;;;5.77;3.13;;;17.20;99.90;16.80;96761.00;;;;5104851;28;20199;-71
2022/05/02 11:35:37;;;;;;;3.50;3.20;;;16.70;99.90;16.10;96758.00;;;;5098023;28;20225;-70
2022/05/02 11:38:33;;;;;;;3.20;2.77;;;16.20;99.90;16.20;96771.00;;;;5107650;28;20222;-70
2022/05/02 11:41:15;;;;;;;6.50;3.70;;;15.90;99.90;15.90;96774.00;;;;5097891;28;20266;-71
2022/05/02 11:43:46;;;;;;;7.27;3.53;;;15.50;99.90;15.70;96779.00;;;;5109762;27;20273;-71
2022/05/02 11:46:22;;;;;;;4.30;3.17;;;15.30;99.90;14.80;96765.00;;;;5130275;27;20212;-70
2022/05/02 11:49:22;;;;;;;9.50;4.03;;;14.90;99.90;14.20;96765.00;;;;5130447;27;20209;-71
2022/05/02 11:51:53;;;;;;;9.27;3.80;;;14.50;99.90;14.20;96759.00;;;;5130582;28;20526;-71
2022/05/02 11:54:39;;;;;;;5.30;4.10;;;14.10;99.90;13.80;96763.00;;;;5126185;28;20593;-71
2022/05/02 11:57:22;;;;;;;5.43;4.00;;;13.80;99.90;14.00;96764.00;;;;5109024;28;20226;-71
2022/05/02 12:00:00;;;;;;;8.90;4.80;;;13.60;99.90;14.00;96788.00;;;;5101396;28;20191;-71
2022/05/02 12:02:55;;;;;;;7.90;4.20;;;13.40;99.90;14.00;96797.00;;;;5100264;28;20270;-70
2022/05/02 12:05:27;;;;;;;6.77;4.40;;;13.30;99.90;13.20;96792.00;;;;5099023;28;20214;-71
2022/05/02 12:07:58;;;;;;;7.40;4.57;;;13.10;99.90;13.10;96775.00;;;;5087235;28;20210;-71
2022/05/02 12:10:35;;;;;;;7.00;3.83;;;12.80;99.90;13.10;96773.00;;;;5103094;28;20558;-71